sensor_id;sensor_type;location;lat;lon;timestamp;pressure;altitude;pressure_sealevel;temperature;humidity
25869;BME280;13688;53.154;18.136;2023-04-08T00:03:25;101491.08;;;5.80;100.00
25869;BME280;13688;53.154;18.136;2023-04-08T00:08:48;101493.59;;;5.83;100.00
25869;BME280;13688;53.154;18.136;2023-04-08T00:14:10;101492.80;;;5.81;100.00
25869;BME280;13688;53.154;18.136;2023-04-08T00:19:33;101510.88;;;5.74;100.00
25869;BME280;13688;53.154;18.136;2023-04-08T00:24:56;101518.36;;;5.66;100.00
25869;BME280;13688;53.154;18.136;2023-04-08T00:30:19;101510.69;;;5.58;100.00
25869;BME280;13688;53.154;18.136;2023-04-08T00:35:41;101512.78;;;5.52;100.00
25869;BME280;13688;53.154;18.136;2023-04-08T00:41:03;101521.98;;;5.44;100.00
25869;BME280;13688;53.154;18.136;2023-04-08T00:46:26;101519.78;;;5.34;100.00
25869;BME280;13688;53.154;18.136;2023-04-08T00:51:50;101522.98;;;5.22;100.00
25869;BME280;13688;53.154;18.136;2023-04-08T00:57:14;101529.50;;;5.14;100.00
25869;BME280;13688;53.154;18.136;2023-04-08T01:08:31;101537.95;;;4.82;100.00
25869;BME280;13688;53.154;18.136;2023-04-08T01:13:57;101543.58;;;4.52;100.00
25869;BME280;13688;53.154;18.136;2023-04-08T01:19:29;101544.48;;;4.29;100.00
25869;BME280;13688;53.154;18.136;2023-04-08T01:25:04;101551.22;;;4.16;100.00
25869;BME280;13688;53.154;18.136;2023-04-08T01:30:28;101545.41;;;4.05;100.00
25869;BME280;13688;53.154;18.136;2023-04-08T01:35:56;101550.38;;;3.91;100.00
25869;BME280;13688;53.154;18.136;2023-04-08T01:41:21;101557.09;;;3.78;100.00
25869;BME280;13688;53.154;18.136;2023-04-08T01:46:44;101565.48;;;3.65;100.00
25869;BME280;13688;53.154;18.136;2023-04-08T01:52:08;101565.86;;;3.55;100.00
25869;BME280;13688;53.154;18.136;2023-04-08T01:57:35;101574.65;;;3.57;100.00
25869;BME280;13688;53.154;18.136;2023-04-08T02:03:00;101576.77;;;3.47;100.00
25869;BME280;13688;53.154;18.136;2023-04-08T02:08:24;101574.59;;;3.33;100.00
25869;BME280;13688;53.154;18.136;2023-04-08T02:13:48;101580.27;;;3.23;100.00
25869;BME280;13688;53.154;18.136;2023-04-08T02:19:17;101581.50;;;3.12;100.00
25869;BME280;13688;53.154;18.136;2023-04-08T02:24:45;101583.65;;;3.01;100.00
25869;BME280;13688;53.154;18.136;2023-04-08T02:30:09;101594.75;;;2.86;100.00
25869;BME280;13688;53.154;18.136;2023-04-08T02:35:34;101595.84;;;2.80;100.00
25869;BME280;13688;53.154;18.136;2023-04-08T02:40:58;101599.30;;;2.82;100.00
25869;BME280;13688;53.154;18.136;2023-04-08T02:46:20;101605.95;;;2.68;100.00
25869;BME280;13688;53.154;18.136;2023-04-08T02:51:43;101613.73;;;2.74;100.00
25869;BME280;13688;53.154;18.136;2023-04-08T02:57:05;101617.03;;;2.82;100.00
25869;BME280;13688;53.154;18.136;2023-04-08T03:02:27;101626.25;;;2.70;100.00
25869;BME280;13688;53.154;18.136;2023-04-08T03:07:50;101622.86;;;2.65;100.00
25869;BME280;13688;53.154;18.136;2023-04-08T03:13:12;101635.09;;;2.71;100.00
25869;BME280;13688;53.154;18.136;2023-04-08T03:18:35;101637.22;;;2.58;100.00
25869;BME280;13688;53.154;18.136;2023-04-08T03:23:58;101631.25;;;2.51;100.00
25869;BME280;13688;53.154;18.136;2023-04-08T03:29:20;101640.30;;;2.44;100.00
25869;BME280;13688;53.154;18.136;2023-04-08T03:34:43;101637.81;;;2.38;100.00
25869;BME280;13688;53.154;18.136;2023-04-08T03:40:06;101645.83;;;2.37;100.00
25869;BME280;13688;53.154;18.136;2023-04-08T03:45:29;101643.00;;;2.43;100.00
25869;BME280;13688;53.154;18.136;2023-04-08T03:50:51;101645.77;;;2.38;100.00
25869;BME280;13688;53.154;18.136;2023-04-08T03:56:14;101657.31;;;2.37;100.00
25869;BME280;13688;53.154;18.136;2023-04-08T04:01:36;101658.53;;;2.25;100.00
25869;BME280;13688;53.154;18.136;2023-04-08T04:07:00;101667.52;;;2.20;100.00
25869;BME280;13688;53.154;18.136;2023-04-08T04:12:22;101665.98;;;2.13;100.00
25869;BME280;13688;53.154;18.136;2023-04-08T04:17:48;101667.30;;;1.96;100.00
25869;BME280;13688;53.154;18.136;2023-04-08T04:23:11;101677.95;;;1.95;100.00
25869;BME280;13688;53.154;18.136;2023-04-08T04:28:35;101680.72;;;1.90;100.00
25869;BME280;13688;53.154;18.136;2023-04-08T04:33:58;101684.47;;;1.82;100.00
25869;BME280;13688;53.154;18.136;2023-04-08T04:39:21;101695.02;;;1.85;100.00
25869;BME280;13688;53.154;18.136;2023-04-08T04:44:45;101694.30;;;1.78;100.00
25869;BME280;13688;53.154;18.136;2023-04-08T04:50:08;101702.98;;;1.83;100.00
25869;BME280;13688;53.154;18.136;2023-04-08T04:55:31;101709.20;;;1.82;100.00
25869;BME280;13688;53.154;18.136;2023-04-08T05:00:53;101719.72;;;1.87;100.00
25869;BME280;13688;53.154;18.136;2023-04-08T05:06:15;101716.02;;;1.92;100.00
25869;BME280;13688;53.154;18.136;2023-04-08T05:11:40;101722.95;;;1.98;100.00
25869;BME280;13688;53.154;18.136;2023-04-08T05:17:02;101726.61;;;2.26;100.00
25869;BME280;13688;53.154;18.136;2023-04-08T05:22:24;101733.01;;;2.50;100.00
25869;BME280;13688;53.154;18.136;2023-04-08T05:27:47;101734.98;;;2.75;100.00
25869;BME280;13688;53.154;18.136;2023-04-08T05:33:10;101739.75;;;2.93;100.00
25869;BME280;13688;53.154;18.136;2023-04-08T05:38:34;101747.83;;;3.18;100.00
25869;BME280;13688;53.154;18.136;2023-04-08T05:43:58;101746.55;;;3.31;100.00
25869;BME280;13688;53.154;18.136;2023-04-08T05:49:20;101744.37;;;3.44;100.00
25869;BME280;13688;53.154;18.136;2023-04-08T05:54:42;101755.69;;;3.51;100.00
25869;BME280;13688;53.154;18.136;2023-04-08T06:00:05;101759.55;;;3.68;100.00
25869;BME280;13688;53.154;18.136;2023-04-08T06:05:30;101769.53;;;3.88;100.00
25869;BME280;13688;53.154;18.136;2023-04-08T06:10:56;101771.10;;;3.94;100.00
25869;BME280;13688;53.154;18.136;2023-04-08T06:16:19;101783.41;;;3.98;100.00
25869;BME280;13688;53.154;18.136;2023-04-08T06:21:42;101784.41;;;3.94;100.00
25869;BME280;13688;53.154;18.136;2023-04-08T06:27:06;101793.06;;;4.00;100.00
25869;BME280;13688;53.154;18.136;2023-04-08T06:32:29;101803.52;;;4.07;100.00
25869;BME280;13688;53.154;18.136;2023-04-08T06:37:51;101798.70;;;4.18;100.00
25869;BME280;13688;53.154;18.136;2023-04-08T06:43:15;101799.14;;;4.30;100.00
25869;BME280;13688;53.154;18.136;2023-04-08T06:48:37;101804.88;;;4.45;100.00
25869;BME280;13688;53.154;18.136;2023-04-08T06:54:00;101820.41;;;4.57;100.00
25869;BME280;13688;53.154;18.136;2023-04-08T06:59:22;101817.16;;;4.74;100.00
25869;BME280;13688;53.154;18.136;2023-04-08T07:04:45;101822.78;;;4.89;100.00
25869;BME280;13688;53.154;18.136;2023-04-08T07:10:08;101834.16;;;5.18;100.00
25869;BME280;13688;53.154;18.136;2023-04-08T07:15:31;101838.16;;;5.30;100.00
25869;BME280;13688;53.154;18.136;2023-04-08T07:20:57;101845.39;;;5.50;100.00
25869;BME280;13688;53.154;18.136;2023-04-08T07:26:20;101843.87;;;5.66;100.00
25869;BME280;13688;53.154;18.136;2023-04-08T07:31:43;101849.88;;;5.94;100.00
25869;BME280;13688;53.154;18.136;2023-04-08T07:37:05;101849.34;;;6.08;100.00
25869;BME280;13688;53.154;18.136;2023-04-08T07:42:28;101860.02;;;6.08;100.00
25869;BME280;13688;53.154;18.136;2023-04-08T07:47:51;101856.55;;;6.48;100.00
25869;BME280;13688;53.154;18.136;2023-04-08T07:53:16;101857.97;;;6.57;98.57
25869;BME280;13688;53.154;18.136;2023-04-08T07:58:39;101857.67;;;6.83;89.26
25869;BME280;13688;53.154;18.136;2023-04-08T08:04:04;101865.16;;;7.16;84.60
25869;BME280;13688;53.154;18.136;2023-04-08T08:09:28;101870.16;;;7.03;81.71
25869;BME280;13688;53.154;18.136;2023-04-08T08:14:53;101871.19;;;7.59;80.46
25869;BME280;13688;53.154;18.136;2023-04-08T08:20:19;101878.20;;;7.61;77.86
25869;BME280;13688;53.154;18.136;2023-04-08T08:25:43;101878.71;;;7.69;76.48
25869;BME280;13688;53.154;18.136;2023-04-08T08:31:08;101888.53;;;8.07;76.17
25869;BME280;13688;53.154;18.136;2023-04-08T08:36:33;101898.63;;;7.83;75.87
25869;BME280;13688;53.154;18.136;2023-04-08T08:41:58;101897.87;;;7.98;75.60
25869;BME280;13688;53.154;18.136;2023-04-08T08:47:23;101900.73;;;8.50;74.54
25869;BME280;13688;53.154;18.136;2023-04-08T08:52:55;101908.20;;;8.24;72.14
25869;BME280;13688;53.154;18.136;2023-04-08T08:58:19;101914.53;;;8.04;72.16
25869;BME280;13688;53.154;18.136;2023-04-08T09:03:43;101912.88;;;8.02;72.62
25869;BME280;13688;53.154;18.136;2023-04-08T09:09:20;101915.74;;;8.35;71.39
25869;BME280;13688;53.154;18.136;2023-04-08T09:14:46;101920.65;;;8.44;69.84
25869;BME280;13688;53.154;18.136;2023-04-08T09:20:32;101918.23;;;9.09;70.30
25869;BME280;13688;53.154;18.136;2023-04-08T09:26:00;101922.41;;;8.97;68.28
25869;BME280;13688;53.154;18.136;2023-04-08T09:31:34;101927.94;;;9.11;67.71
25869;BME280;13688;53.154;18.136;2023-04-08T09:36:57;101933.86;;;8.83;67.00
25869;BME280;13688;53.154;18.136;2023-04-08T09:42:21;101938.87;;;8.55;67.86
25869;BME280;13688;53.154;18.136;2023-04-08T09:53:38;101937.80;;;9.11;68.66
25869;BME280;13688;53.154;18.136;2023-04-08T09:59:08;101939.12;;;8.68;66.78
25869;BME280;13688;53.154;18.136;2023-04-08T10:04:37;101937.79;;;9.28;65.94
25869;BME280;13688;53.154;18.136;2023-04-08T10:10:02;101934.78;;;9.67;66.20
25869;BME280;13688;53.154;18.136;2023-04-08T10:15:30;101927.39;;;10.81;62.08
25869;BME280;13688;53.154;18.136;2023-04-08T10:21:00;101920.98;;;10.68;59.42
25869;BME280;13688;53.154;18.136;2023-04-08T10:26:38;101918.73;;;11.21;58.58
25869;BME280;13688;53.154;18.136;2023-04-08T10:32:02;101913.84;;;11.41;57.91
25869;BME280;13688;53.154;18.136;2023-04-08T10:37:39;101906.33;;;12.57;54.74
25869;BME280;13688;53.154;18.136;2023-04-08T10:43:05;101910.38;;;12.77;52.39
25869;BME280;13688;53.154;18.136;2023-04-08T10:48:33;101920.14;;;12.26;53.08
25869;BME280;13688;53.154;18.136;2023-04-08T10:54:07;101913.93;;;13.56;53.53
25869;BME280;13688;53.154;18.136;2023-04-08T10:59:34;101902.33;;;14.16;50.49
25869;BME280;13688;53.154;18.136;2023-04-08T11:05:00;101892.77;;;14.59;47.76
25869;BME280;13688;53.154;18.136;2023-04-08T11:10:22;101894.74;;;15.04;48.67
25869;BME280;13688;53.154;18.136;2023-04-08T11:15:48;101898.37;;;14.32;48.80
25869;BME280;13688;53.154;18.136;2023-04-08T11:21:22;101903.42;;;14.85;47.29
25869;BME280;13688;53.154;18.136;2023-04-08T11:26:45;101900.26;;;14.91;45.66
25869;BME280;13688;53.154;18.136;2023-04-08T11:32:09;101900.15;;;14.57;44.29
25869;BME280;13688;53.154;18.136;2023-04-08T11:37:38;101900.73;;;14.13;45.45
25869;BME280;13688;53.154;18.136;2023-04-08T11:43:10;101888.63;;;14.06;46.50
25869;BME280;13688;53.154;18.136;2023-04-08T11:48:34;101895.47;;;14.59;43.77
25869;BME280;13688;53.154;18.136;2023-04-08T11:53:59;101896.02;;;15.22;43.79
25869;BME280;13688;53.154;18.136;2023-04-08T11:59:24;101894.83;;;16.05;43.39
25869;BME280;13688;53.154;18.136;2023-04-08T12:04:48;101887.42;;;16.07;41.43
25869;BME280;13688;53.154;18.136;2023-04-08T12:10:13;101884.70;;;16.07;40.78
25869;BME280;13688;53.154;18.136;2023-04-08T12:15:38;101875.49;;;15.87;41.21
25869;BME280;13688;53.154;18.136;2023-04-08T12:21:08;101873.28;;;15.69;41.37
25869;BME280;13688;53.154;18.136;2023-04-08T12:26:33;101870.17;;;15.52;40.77
25869;BME280;13688;53.154;18.136;2023-04-08T12:31:57;101870.97;;;16.19;42.10
25869;BME280;13688;53.154;18.136;2023-04-08T12:37:21;101862.08;;;16.60;40.55
25869;BME280;13688;53.154;18.136;2023-04-08T12:42:45;101854.05;;;16.91;38.69
25869;BME280;13688;53.154;18.136;2023-04-08T12:48:08;101860.09;;;15.76;40.06
25869;BME280;13688;53.154;18.136;2023-04-08T12:53:30;101863.93;;;15.73;39.08
25869;BME280;13688;53.154;18.136;2023-04-08T12:58:53;101860.84;;;15.67;39.58
25869;BME280;13688;53.154;18.136;2023-04-08T13:04:16;101850.70;;;17.29;39.41
25869;BME280;13688;53.154;18.136;2023-04-08T13:09:38;101850.64;;;17.81;36.60
25869;BME280;13688;53.154;18.136;2023-04-08T13:15:01;101846.61;;;18.44;35.70
25869;BME280;13688;53.154;18.136;2023-04-08T13:20:28;101845.97;;;18.02;37.67
25869;BME280;13688;53.154;18.136;2023-04-08T13:25:51;101846.29;;;18.18;36.11
25869;BME280;13688;53.154;18.136;2023-04-08T13:31:14;101842.02;;;17.76;36.26
25869;BME280;13688;53.154;18.136;2023-04-08T13:36:36;101845.92;;;17.83;36.13
25869;BME280;13688;53.154;18.136;2023-04-08T13:41:59;101842.27;;;17.32;36.00
25869;BME280;13688;53.154;18.136;2023-04-08T13:47:22;101845.31;;;17.69;35.98
25869;BME280;13688;53.154;18.136;2023-04-08T13:52:46;101844.18;;;16.90;35.99
25869;BME280;13688;53.154;18.136;2023-04-08T13:58:09;101849.23;;;15.87;37.76
25869;BME280;13688;53.154;18.136;2023-04-08T14:03:33;101841.44;;;17.11;38.12
25869;BME280;13688;53.154;18.136;2023-04-08T14:08:57;101836.20;;;17.90;34.58
25869;BME280;13688;53.154;18.136;2023-04-08T14:14:19;101838.05;;;17.49;35.24
25869;BME280;13688;53.154;18.136;2023-04-08T14:19:42;101832.53;;;18.20;35.63
25869;BME280;13688;53.154;18.136;2023-04-08T14:25:05;101821.31;;;17.54;34.50
25869;BME280;13688;53.154;18.136;2023-04-08T14:30:28;101825.08;;;15.51;38.17
25869;BME280;13688;53.154;18.136;2023-04-08T14:35:51;101821.39;;;15.63;38.29
25869;BME280;13688;53.154;18.136;2023-04-08T14:41:15;101816.70;;;17.14;35.28
25869;BME280;13688;53.154;18.136;2023-04-08T14:46:38;101812.08;;;17.35;33.31
25869;BME280;13688;53.154;18.136;2023-04-08T14:52:01;101806.25;;;17.40;32.48
25869;BME280;13688;53.154;18.136;2023-04-08T14:57:24;101806.42;;;17.88;32.69
25869;BME280;13688;53.154;18.136;2023-04-08T15:02:46;101806.17;;;18.20;32.26
25869;BME280;13688;53.154;18.136;2023-04-08T15:08:10;101802.16;;;18.63;31.60
25869;BME280;13688;53.154;18.136;2023-04-08T15:13:33;101797.85;;;18.31;31.90
25869;BME280;13688;53.154;18.136;2023-04-08T15:18:56;101797.13;;;18.78;33.68
25869;BME280;13688;53.154;18.136;2023-04-08T15:24:18;101790.50;;;18.90;34.44
25869;BME280;13688;53.154;18.136;2023-04-08T15:29:41;101788.11;;;18.48;34.01
25869;BME280;13688;53.154;18.136;2023-04-08T15:35:04;101798.84;;;18.11;35.01
25869;BME280;13688;53.154;18.136;2023-04-08T15:40:26;101796.36;;;17.69;34.99
25869;BME280;13688;53.154;18.136;2023-04-08T15:45:49;101797.78;;;17.73;34.57
25869;BME280;13688;53.154;18.136;2023-04-08T15:51:12;101795.92;;;17.74;34.83
25869;BME280;13688;53.154;18.136;2023-04-08T15:56:35;101794.11;;;18.03;34.13
25869;BME280;13688;53.154;18.136;2023-04-08T16:01:58;101802.16;;;17.65;35.48
25869;BME280;13688;53.154;18.136;2023-04-08T16:07:21;101805.71;;;17.56;36.74
25869;BME280;13688;53.154;18.136;2023-04-08T16:12:45;101806.09;;;17.72;36.97
25869;BME280;13688;53.154;18.136;2023-04-08T16:18:08;101807.25;;;17.39;37.65
25869;BME280;13688;53.154;18.136;2023-04-08T16:23:31;101803.02;;;17.25;37.22
25869;BME280;13688;53.154;18.136;2023-04-08T16:28:53;101806.78;;;17.03;37.36
25869;BME280;13688;53.154;18.136;2023-04-08T16:34:17;101819.92;;;15.36;40.90
25869;BME280;13688;53.154;18.136;2023-04-08T16:39:39;101813.36;;;14.24;43.61
25869;BME280;13688;53.154;18.136;2023-04-08T16:45:02;101812.25;;;14.26;46.30
25869;BME280;13688;53.154;18.136;2023-04-08T16:50:25;101819.96;;;14.68;44.78
25869;BME280;13688;53.154;18.136;2023-04-08T16:55:47;101818.33;;;14.65;45.01
25869;BME280;13688;53.154;18.136;2023-04-08T17:01:17;101823.48;;;13.85;47.87
25869;BME280;13688;53.154;18.136;2023-04-08T17:06:39;101824.88;;;12.90;50.95
25869;BME280;13688;53.154;18.136;2023-04-08T17:12:03;101829.46;;;12.11;53.95
25869;BME280;13688;53.154;18.136;2023-04-08T17:17:26;101838.42;;;11.27;56.77
25869;BME280;13688;53.154;18.136;2023-04-08T17:22:49;101840.30;;;10.38;59.50
25869;BME280;13688;53.154;18.136;2023-04-08T17:28:11;101838.36;;;9.79;63.18
25869;BME280;13688;53.154;18.136;2023-04-08T17:33:34;101842.12;;;9.27;64.53
25869;BME280;13688;53.154;18.136;2023-04-08T17:38:57;101849.68;;;8.86;65.94
25869;BME280;13688;53.154;18.136;2023-04-08T17:44:19;101854.59;;;8.43;67.57
25869;BME280;13688;53.154;18.136;2023-04-08T17:49:41;101865.61;;;8.01;70.06
25869;BME280;13688;53.154;18.136;2023-04-08T17:55:05;101870.48;;;7.74;71.65
25869;BME280;13688;53.154;18.136;2023-04-08T18:00:29;101879.45;;;7.54;72.63
25869;BME280;13688;53.154;18.136;2023-04-08T18:05:51;101879.99;;;7.42;72.72
25869;BME280;13688;53.154;18.136;2023-04-08T18:11:14;101888.85;;;7.24;73.65
25869;BME280;13688;53.154;18.136;2023-04-08T18:16:37;101883.82;;;6.56;74.68
25869;BME280;13688;53.154;18.136;2023-04-08T18:21:59;101890.42;;;6.26;76.45
25869;BME280;13688;53.154;18.136;2023-04-08T18:27:21;101901.98;;;6.05;77.84
25869;BME280;13688;53.154;18.136;2023-04-08T18:32:44;101895.40;;;6.13;79.21
25869;BME280;13688;53.154;18.136;2023-04-08T18:38:06;101902.27;;;5.97;79.83
25869;BME280;13688;53.154;18.136;2023-04-08T18:43:28;101899.61;;;5.97;79.34
25869;BME280;13688;53.154;18.136;2023-04-08T18:48:51;101904.08;;;5.96;78.90
25869;BME280;13688;53.154;18.136;2023-04-08T18:54:14;101905.58;;;6.03;78.31
25869;BME280;13688;53.154;18.136;2023-04-08T18:59:36;101910.06;;;5.80;77.89
25869;BME280;13688;53.154;18.136;2023-04-08T19:05:00;101913.88;;;5.49;78.71
25869;BME280;13688;53.154;18.136;2023-04-08T19:10:23;101909.92;;;5.12;79.93
25869;BME280;13688;53.154;18.136;2023-04-08T19:15:47;101914.39;;;5.12;81.05
25869;BME280;13688;53.154;18.136;2023-04-08T19:21:10;101917.41;;;5.01;81.59
25869;BME280;13688;53.154;18.136;2023-04-08T19:26:32;101922.42;;;4.85;82.14
25869;BME280;13688;53.154;18.136;2023-04-08T19:31:55;101922.37;;;4.87;82.70
25869;BME280;13688;53.154;18.136;2023-04-08T19:37:17;101923.05;;;4.67;82.94
25869;BME280;13688;53.154;18.136;2023-04-08T19:42:48;101918.79;;;4.62;83.74
25869;BME280;13688;53.154;18.136;2023-04-08T19:48:10;101919.52;;;4.40;84.07
25869;BME280;13688;53.154;18.136;2023-04-08T19:53:33;101914.78;;;4.22;84.67
25869;BME280;13688;53.154;18.136;2023-04-08T19:58:55;101907.09;;;4.13;85.53
25869;BME280;13688;53.154;18.136;2023-04-08T20:04:19;101907.72;;;4.21;86.48
25869;BME280;13688;53.154;18.136;2023-04-08T20:09:42;101908.86;;;4.40;87.22
25869;BME280;13688;53.154;18.136;2023-04-08T20:15:04;101911.85;;;4.82;87.10
25869;BME280;13688;53.154;18.136;2023-04-08T20:20:28;101907.07;;;5.87;85.72
25869;BME280;13688;53.154;18.136;2023-04-08T20:25:52;101901.06;;;6.70;81.01
25869;BME280;13688;53.154;18.136;2023-04-08T20:31:15;101902.78;;;7.11;75.34
25869;BME280;13688;53.154;18.136;2023-04-08T20:36:37;101903.05;;;7.26;72.82
25869;BME280;13688;53.154;18.136;2023-04-08T20:42:00;101901.06;;;6.90;72.16
25869;BME280;13688;53.154;18.136;2023-04-08T20:47:22;101901.27;;;7.06;72.33
25869;BME280;13688;53.154;18.136;2023-04-08T20:52:44;101904.49;;;7.33;71.65
25869;BME280;13688;53.154;18.136;2023-04-08T20:58:07;101908.11;;;7.32;70.84
25869;BME280;13688;53.154;18.136;2023-04-08T21:03:30;101895.22;;;7.21;71.06
25869;BME280;13688;53.154;18.136;2023-04-08T21:08:53;101894.50;;;7.17;71.12
25869;BME280;13688;53.154;18.136;2023-04-08T21:14:15;101901.77;;;7.14;70.77
25869;BME280;13688;53.154;18.136;2023-04-08T21:19:40;101900.33;;;7.07;70.80
25869;BME280;13688;53.154;18.136;2023-04-08T21:25:02;101897.73;;;7.05;71.11
25869;BME280;13688;53.154;18.136;2023-04-08T21:30:24;101893.97;;;7.09;70.71
25869;BME280;13688;53.154;18.136;2023-04-08T21:35:47;101898.45;;;7.09;70.26
25869;BME280;13688;53.154;18.136;2023-04-08T21:41:09;101904.67;;;7.09;70.16
25869;BME280;13688;53.154;18.136;2023-04-08T21:46:33;101899.25;;;7.11;69.68
25869;BME280;13688;53.154;18.136;2023-04-08T21:51:55;101901.20;;;7.07;69.62
25869;BME280;13688;53.154;18.136;2023-04-08T21:57:17;101898.30;;;7.12;69.47
25869;BME280;13688;53.154;18.136;2023-04-08T22:02:40;101900.52;;;7.02;69.33
25869;BME280;13688;53.154;18.136;2023-04-08T22:08:02;101895.77;;;7.09;69.27
25869;BME280;13688;53.154;18.136;2023-04-08T22:13:24;101898.17;;;6.95;69.44
25869;BME280;13688;53.154;18.136;2023-04-08T22:18:47;101889.24;;;6.96;69.67
25869;BME280;13688;53.154;18.136;2023-04-08T22:24:09;101888.42;;;6.94;69.75
25869;BME280;13688;53.154;18.136;2023-04-08T22:29:33;101881.63;;;6.86;70.02
25869;BME280;13688;53.154;18.136;2023-04-08T22:34:55;101883.36;;;6.87;70.09
25869;BME280;13688;53.154;18.136;2023-04-08T22:40:17;101883.29;;;6.89;70.09
25869;BME280;13688;53.154;18.136;2023-04-08T22:45:41;101887.08;;;6.83;70.57
25869;BME280;13688;53.154;18.136;2023-04-08T22:51:04;101883.28;;;6.69;71.44
25869;BME280;13688;53.154;18.136;2023-04-08T22:56:26;101888.27;;;6.56;72.77
25869;BME280;13688;53.154;18.136;2023-04-08T23:01:48;101884.52;;;6.40;74.19
25869;BME280;13688;53.154;18.136;2023-04-08T23:07:11;101884.03;;;6.30;74.97
25869;BME280;13688;53.154;18.136;2023-04-08T23:12:34;101888.61;;;6.26;75.48
25869;BME280;13688;53.154;18.136;2023-04-08T23:17:56;101883.12;;;6.09;76.54
25869;BME280;13688;53.154;18.136;2023-04-08T23:23:19;101885.22;;;6.01;76.97
25869;BME280;13688;53.154;18.136;2023-04-08T23:28:41;101885.09;;;6.04;77.05
25869;BME280;13688;53.154;18.136;2023-04-08T23:34:04;101875.55;;;5.98;77.43
25869;BME280;13688;53.154;18.136;2023-04-08T23:39:27;101875.64;;;5.95;78.11
25869;BME280;13688;53.154;18.136;2023-04-08T23:44:55;101862.43;;;5.92;78.71
25869;BME280;13688;53.154;18.136;2023-04-08T23:50:15;101852.72;;;5.90;79.26
25869;BME280;13688;53.154;18.136;2023-04-08T23:55:38;101862.36;;;5.94;79.84
